createdAt,value
2019-03-23T00:03:58.040Z,53.57
2019-03-23T00:06:30.682Z,56.97
2019-03-23T00:08:54.738Z,58.07
2019-03-23T00:11:22.122Z,59.80
2019-03-23T00:13:49.774Z,57.07
2019-03-23T00:16:17.046Z,55.57
2019-03-23T00:18:44.467Z,57.27
2019-03-23T00:21:11.731Z,55.87
2019-03-23T00:23:39.126Z,53.00
2019-03-23T00:26:06.544Z,48.47
2019-03-23T00:28:34.092Z,46.93
2019-03-23T00:31:01.447Z,49.03
2019-03-23T00:33:28.867Z,52.37
2019-03-23T00:36:15.476Z,42.47
2019-03-23T00:38:43.228Z,40.90
2019-03-23T00:41:31.970Z,55.57
2019-03-23T00:43:59.291Z,74.10
2019-03-23T00:46:26.677Z,54.40
2019-03-23T00:48:53.941Z,64.10
2019-03-23T00:51:21.651Z,56.60
2019-03-23T00:53:49.039Z,58.13
2019-03-23T00:56:16.679Z,49.27
2019-03-23T00:58:44.368Z,64.23
2019-03-23T01:01:11.827Z,59.83
2019-03-23T01:03:39.082Z,63.97
2019-03-23T01:06:06.412Z,59.03
2019-03-23T01:11:22.581Z,61.17
2019-03-23T01:13:49.842Z,45.17
2019-03-23T01:16:17.153Z,46.33
2019-03-23T01:18:44.534Z,43.27
2019-03-23T01:21:11.903Z,42.07
2019-03-23T01:23:39.267Z,44.10
2019-03-23T01:26:06.976Z,42.00
2019-03-23T01:28:34.362Z,43.53
2019-03-23T01:31:02.207Z,39.80
2019-03-23T01:33:29.826Z,41.73
2019-03-23T01:35:57.078Z,40.17
2019-03-23T01:38:24.338Z,38.67
2019-03-23T01:40:51.561Z,37.07
2019-03-23T01:43:18.813Z,37.90
2019-03-23T01:45:46.185Z,38.07
2019-03-23T01:48:13.607Z,37.40
2019-03-23T01:50:40.988Z,36.97
2019-03-23T01:53:08.260Z,38.63
2019-03-23T01:55:36.195Z,36.53
2019-03-23T01:58:03.566Z,42.50
2019-03-23T02:00:31.171Z,40.17
2019-03-23T02:02:58.490Z,44.17
2019-03-23T02:05:26.462Z,51.23
2019-03-23T02:07:53.720Z,49.30
2019-03-23T02:10:21.207Z,58.07
2019-03-23T02:12:48.471Z,57.70
2019-03-23T02:15:15.841Z,62.80
2019-03-23T02:17:43.206Z,61.10
2019-03-23T02:20:10.979Z,63.17
2019-03-23T02:22:38.757Z,67.50
2019-03-23T02:25:06.626Z,51.63
2019-03-23T02:27:34.126Z,58.27
2019-03-23T02:30:01.385Z,52.23
2019-03-23T02:32:28.790Z,65.23
2019-03-23T02:34:56.052Z,70.97
2019-03-23T02:37:28.088Z,58.40
2019-03-23T02:39:52.811Z,62.13
2019-03-23T02:42:20.067Z,57.30
2019-03-23T02:44:47.429Z,55.67
2019-03-23T02:47:14.735Z,63.97
2019-03-23T02:49:42.351Z,72.07
2019-03-23T02:52:09.634Z,58.93
2019-03-23T02:54:37.043Z,61.87
2019-03-23T02:57:04.317Z,64.63
2019-03-23T02:59:31.676Z,60.77
2019-03-23T03:01:59.334Z,67.30
2019-03-23T03:04:26.597Z,64.33
2019-03-23T03:06:54.072Z,70.70
2019-03-23T03:09:21.760Z,67.17
2019-03-23T03:11:49.008Z,67.73
2019-03-23T03:14:16.380Z,73.03
2019-03-23T03:16:43.791Z,61.23
2019-03-23T03:19:11.435Z,73.80
2019-03-23T03:21:38.854Z,69.20
2019-03-23T03:24:06.552Z,63.43
2019-03-23T03:26:33.817Z,64.53
2019-03-23T03:29:01.392Z,64.50
2019-03-23T03:31:28.743Z,65.53
2019-03-23T03:33:56.047Z,61.73
2019-03-23T03:36:23.651Z,64.23
2019-03-23T03:38:51.275Z,65.80
2019-03-23T03:41:18.538Z,60.47
2019-03-23T03:43:45.796Z,64.73
2019-03-23T03:46:13.112Z,70.20
2019-03-23T03:48:40.372Z,67.27
2019-03-23T03:51:07.624Z,72.30
2019-03-23T03:53:35.129Z,66.13
2019-03-23T03:56:02.546Z,62.10
2019-03-23T03:58:30.768Z,61.67
2019-03-23T04:00:58.591Z,66.63
2019-03-23T04:03:38.262Z,63.10
2019-03-23T04:06:05.596Z,59.03
2019-03-23T04:08:32.859Z,62.97
2019-03-23T04:11:00.347Z,59.00
2019-03-23T04:13:27.829Z,59.77
2019-03-23T04:15:55.210Z,60.40
2019-03-23T04:18:22.465Z,62.50
2019-03-23T04:20:49.893Z,62.10
2019-03-23T04:23:17.174Z,55.57
2019-03-23T04:25:44.435Z,62.03
2019-03-23T04:28:11.756Z,52.47
2019-03-23T04:30:39.299Z,50.00
2019-03-23T04:33:06.651Z,54.73
2019-03-23T04:35:34.205Z,52.70
2019-03-23T04:38:01.801Z,53.13
2019-03-23T04:40:29.057Z,48.37
2019-03-23T04:42:56.421Z,44.47
2019-03-23T04:45:30.700Z,50.90
2019-03-23T04:47:57.955Z,50.97
2019-03-23T04:50:25.263Z,46.77
2019-03-23T04:52:52.539Z,47.97
2019-03-23T04:55:19.797Z,47.03
2019-03-23T04:57:47.128Z,44.63
2019-03-23T05:00:14.642Z,45.20
2019-03-23T05:02:41.892Z,46.27
2019-03-23T05:05:09.262Z,44.23
2019-03-23T05:07:36.527Z,44.97
2019-03-23T05:10:04.284Z,43.37
2019-03-23T05:12:31.663Z,47.67
2019-03-23T05:14:59.140Z,44.60
2019-03-23T05:17:26.514Z,40.50
2019-03-23T05:19:53.930Z,43.83
2019-03-23T05:22:21.234Z,41.50
2019-03-23T05:24:48.781Z,40.70
2019-03-23T05:27:16.186Z,39.60
2019-03-23T05:29:44.011Z,37.60
2019-03-23T05:32:11.263Z,39.77
2019-03-23T05:34:38.596Z,39.10
2019-03-23T05:37:05.851Z,38.13
2019-03-23T05:39:33.313Z,39.53
2019-03-23T05:42:00.648Z,38.40
2019-03-23T05:44:27.907Z,38.67
2019-03-23T05:46:55.169Z,38.17
2019-03-23T05:49:22.490Z,38.53
2019-03-23T05:51:50.070Z,38.40
2019-03-23T05:54:17.324Z,36.90
2019-03-23T05:56:44.638Z,37.77
2019-03-23T05:59:11.886Z,37.43
2019-03-23T06:01:39.143Z,34.67
2019-03-23T06:04:06.454Z,36.50
2019-03-23T06:06:33.762Z,34.80
2019-03-23T06:09:01.367Z,36.23
2019-03-23T06:11:28.922Z,35.70
2019-03-23T06:13:56.483Z,35.67
2019-03-23T06:16:23.736Z,35.00
2019-03-23T06:18:51.174Z,35.40
2019-03-23T06:21:18.488Z,35.33
2019-03-23T06:23:45.907Z,36.10
2019-03-23T06:26:13.241Z,34.63
2019-03-23T06:28:40.608Z,36.83
2019-03-23T06:31:07.960Z,35.67
2019-03-23T06:33:35.781Z,36.10
2019-03-23T06:36:03.115Z,37.27
2019-03-23T06:38:30.834Z,35.20
2019-03-23T06:40:58.146Z,37.27
2019-03-23T06:43:25.405Z,37.43
2019-03-23T06:45:52.576Z,37.10
2019-03-23T06:48:20.043Z,37.57
2019-03-23T06:50:47.311Z,39.63
2019-03-23T06:53:14.971Z,41.50
2019-03-23T06:55:42.572Z,41.87
2019-03-23T06:58:09.836Z,39.33
2019-03-23T07:00:37.541Z,41.67
2019-03-23T07:03:05.308Z,39.57
2019-03-23T07:05:32.572Z,41.53
2019-03-23T07:07:59.878Z,45.23
2019-03-23T07:10:27.318Z,45.20
2019-03-23T07:12:54.964Z,48.83
2019-03-23T07:15:22.874Z,49.23
2019-03-23T07:17:50.475Z,50.20
2019-03-23T07:20:17.840Z,48.30
2019-03-23T07:22:45.108Z,46.57
2019-03-23T07:25:12.610Z,48.10
2019-03-23T07:27:39.863Z,46.27
2019-03-23T07:30:09.279Z,47.13
2019-03-23T07:32:36.698Z,45.03
2019-03-23T07:35:04.818Z,46.83
2019-03-23T07:37:32.088Z,41.33
2019-03-23T07:39:59.515Z,40.53
2019-03-23T07:42:26.765Z,39.93
2019-03-23T07:44:54.025Z,39.87
2019-03-23T07:47:21.354Z,40.50
2019-03-23T07:49:48.624Z,39.07
2019-03-23T07:52:15.887Z,40.30
2019-03-23T07:54:43.512Z,40.30
2019-03-23T07:57:10.766Z,41.73
2019-03-23T07:59:38.024Z,40.00
2019-03-23T08:02:05.648Z,40.70
2019-03-23T08:04:32.916Z,39.87
2019-03-23T08:07:00.175Z,40.70
2019-03-23T08:09:37.341Z,38.07
2019-03-23T08:11:57.757Z,39.43
2019-03-23T08:14:25.007Z,37.83
2019-03-23T08:16:52.317Z,40.67
2019-03-23T08:19:19.573Z,40.13
2019-03-23T08:21:47.108Z,40.60
2019-03-23T08:24:14.511Z,42.27
2019-03-23T08:26:41.763Z,41.80
2019-03-23T08:29:09.018Z,40.60
2019-03-23T08:31:36.349Z,40.40
2019-03-23T08:34:03.833Z,39.80
2019-03-23T08:36:31.156Z,41.90
2019-03-23T08:38:59.131Z,39.17
2019-03-23T08:41:26.386Z,40.70
2019-03-23T08:43:53.637Z,39.60
2019-03-23T08:46:20.944Z,38.83
2019-03-23T08:48:48.808Z,38.63
2019-03-23T08:51:16.190Z,37.87
2019-03-23T08:53:43.742Z,38.03
2019-03-23T08:56:11.108Z,38.20
2019-03-23T08:58:37.010Z,36.47
2019-03-23T09:01:04.327Z,35.87
2019-03-23T09:03:31.594Z,35.03
2019-03-23T09:05:58.850Z,36.27
2019-03-23T09:08:26.218Z,36.30
2019-03-23T09:10:53.632Z,35.70
2019-03-23T09:13:20.995Z,36.77
2019-03-23T09:15:48.332Z,37.60
2019-03-23T09:18:15.602Z,35.87
2019-03-23T09:20:43.276Z,34.63
2019-03-23T09:23:10.500Z,37.90
2019-03-23T09:25:38.089Z,36.07
2019-03-23T09:28:05.350Z,35.23
2019-03-23T09:30:32.650Z,35.27
2019-03-23T09:32:59.910Z,34.63
2019-03-23T09:35:27.556Z,35.37
2019-03-23T09:37:54.993Z,34.47
2019-03-23T09:40:22.624Z,34.57
2019-03-23T09:42:50.262Z,35.03
2019-03-23T09:45:17.586Z,34.13
2019-03-23T09:47:45.273Z,32.50
2019-03-23T09:50:12.959Z,32.97
2019-03-23T09:52:40.264Z,35.00
2019-03-23T09:55:07.519Z,33.33
2019-03-23T09:57:34.786Z,33.87
2019-03-23T10:00:02.106Z,33.03
2019-03-23T10:02:29.384Z,34.03
2019-03-23T10:04:56.846Z,32.27
2019-03-23T10:07:24.543Z,32.50
2019-03-23T10:09:51.811Z,32.33
2019-03-23T10:12:19.151Z,32.87
2019-03-23T10:14:46.451Z,30.27
2019-03-23T10:17:13.705Z,30.50
2019-03-23T10:19:41.257Z,30.90
2019-03-23T10:22:08.840Z,29.13
2019-03-23T10:24:36.197Z,29.40
2019-03-23T10:27:03.641Z,28.50
2019-03-23T10:29:30.931Z,29.13
2019-03-23T10:31:58.250Z,28.20
2019-03-23T10:34:25.880Z,26.20
2019-03-23T10:36:53.203Z,25.77
2019-03-23T10:39:20.457Z,25.43
2019-03-23T10:41:48.389Z,25.97
2019-03-23T10:44:15.989Z,26.27
2019-03-23T10:46:43.643Z,25.17
2019-03-23T10:49:11.021Z,26.87
2019-03-23T10:51:38.963Z,26.10
2019-03-23T10:54:06.211Z,25.57
2019-03-23T10:56:34.035Z,26.00
2019-03-23T10:59:01.503Z,26.93
2019-03-23T11:01:28.766Z,27.53
2019-03-23T11:03:56.015Z,26.77
2019-03-23T11:06:23.322Z,26.50
2019-03-23T11:08:50.798Z,27.07
2019-03-23T11:11:18.047Z,27.33
2019-03-23T11:13:45.533Z,26.03
2019-03-23T11:16:12.796Z,27.03
2019-03-23T11:18:40.337Z,27.03
2019-03-23T11:21:07.652Z,26.67
2019-03-23T11:23:35.299Z,28.23
2019-03-23T11:26:02.610Z,28.37
2019-03-23T11:28:29.877Z,28.37
2019-03-23T11:30:57.373Z,29.53
2019-03-23T11:33:24.594Z,30.27
2019-03-23T11:35:57.709Z,30.17
2019-03-23T11:38:21.658Z,31.13
2019-03-23T11:40:54.071Z,30.47
2019-03-23T11:43:18.233Z,33.13
2019-03-23T11:45:45.507Z,34.83
2019-03-23T11:48:13.095Z,31.90
2019-03-23T11:50:40.886Z,35.20
2019-03-23T11:53:08.139Z,34.80
2019-03-23T11:55:35.697Z,35.17
2019-03-23T11:58:03.115Z,36.70
2019-03-23T12:00:30.647Z,36.83
2019-03-23T12:02:57.907Z,36.90
2019-03-23T12:05:25.606Z,39.30
2019-03-23T12:07:52.862Z,40.93
2019-03-23T12:10:20.223Z,42.73
2019-03-23T12:12:47.675Z,43.77
2019-03-23T12:15:15.388Z,42.67
2019-03-23T12:17:42.653Z,40.67
2019-03-23T12:20:50.784Z,42.43
2019-03-23T12:23:18.043Z,46.33
2019-03-23T12:25:45.294Z,46.60
2019-03-23T12:28:12.902Z,48.83
2019-03-23T12:30:40.442Z,48.07
2019-03-23T12:33:07.739Z,47.77
2019-03-23T12:35:35.155Z,45.23
2019-03-23T12:38:02.504Z,44.67
2019-03-23T12:40:49.162Z,46.87
2019-03-23T12:43:16.413Z,45.67
2019-03-23T12:45:43.769Z,49.40
2019-03-23T12:48:11.200Z,47.40
2019-03-23T12:50:38.457Z,47.63
2019-03-23T12:53:05.826Z,48.10
2019-03-23T12:55:33.138Z,47.73
2019-03-23T12:58:00.765Z,46.30
2019-03-23T13:00:28.317Z,44.87
2019-03-23T13:02:55.901Z,47.47
2019-03-23T13:05:23.169Z,42.63
2019-03-23T13:07:50.817Z,46.27
2019-03-23T13:10:18.303Z,46.60
2019-03-23T13:12:45.688Z,44.87
2019-03-23T13:15:13.075Z,40.50
2019-03-23T13:17:41.155Z,43.53
2019-03-23T13:20:08.897Z,42.83
2019-03-23T13:22:36.212Z,40.77
2019-03-23T13:25:04.348Z,41.30
2019-03-23T13:27:31.707Z,41.80
2019-03-23T13:29:58.971Z,42.43
2019-03-23T13:32:26.514Z,41.57
2019-03-23T13:34:53.869Z,41.33
2019-03-23T13:37:21.179Z,40.30
2019-03-23T13:39:48.814Z,41.53
2019-03-23T13:42:16.437Z,41.37
2019-03-23T13:44:43.909Z,40.87
2019-03-23T13:47:11.218Z,41.13
2019-03-23T13:49:38.479Z,37.50
2019-03-23T13:52:06.060Z,39.03
2019-03-23T13:54:33.650Z,38.30
2019-03-23T13:57:01.312Z,37.13
2019-03-23T13:59:28.889Z,34.93
2019-03-23T14:01:56.205Z,34.47
2019-03-23T14:04:23.458Z,34.57
2019-03-23T14:06:50.815Z,34.37
2019-03-23T14:09:18.604Z,33.63
2019-03-23T14:11:54.718Z,32.10
2019-03-23T14:14:15.963Z,33.77
2019-03-23T14:16:43.266Z,32.97
2019-03-23T14:19:10.708Z,32.90
2019-03-23T14:21:38.070Z,32.17
2019-03-23T14:24:05.502Z,32.70
2019-03-23T14:26:33.036Z,32.80
2019-03-23T14:29:00.307Z,33.03
2019-03-23T14:31:27.932Z,32.30
2019-03-23T14:33:55.186Z,33.10
2019-03-23T14:36:22.363Z,34.00
2019-03-23T14:38:49.705Z,33.53
2019-03-23T14:41:17.250Z,31.53
2019-03-23T14:43:44.627Z,30.80
2019-03-23T14:46:12.111Z,30.43
2019-03-23T14:48:39.711Z,30.43
2019-03-23T14:51:06.957Z,30.50
2019-03-23T14:53:34.264Z,29.00
2019-03-23T14:56:01.621Z,29.13
2019-03-23T14:58:29.093Z,31.80
2019-03-23T15:00:56.406Z,31.57
2019-03-23T15:03:23.669Z,31.53
2019-03-23T15:05:50.949Z,35.53
2019-03-23T15:08:18.255Z,33.43
2019-03-23T15:10:46.306Z,31.10
2019-03-23T15:13:13.583Z,29.97
2019-03-23T15:15:41.079Z,31.23
2019-03-23T15:18:08.354Z,32.40
2019-03-23T15:20:35.787Z,29.83
2019-03-23T15:23:03.133Z,31.23
2019-03-23T15:25:30.523Z,32.47
2019-03-23T15:27:58.610Z,30.43
2019-03-23T15:30:25.952Z,30.60
2019-03-23T15:32:53.329Z,29.87
2019-03-23T15:35:20.725Z,31.67
2019-03-23T15:37:48.168Z,30.30
2019-03-23T15:40:15.552Z,30.10
2019-03-23T15:42:42.838Z,29.80
2019-03-23T15:45:10.339Z,31.53
2019-03-23T15:47:37.618Z,29.60
2019-03-23T15:50:05.064Z,30.20
2019-03-23T15:52:32.633Z,29.03
2019-03-23T15:54:59.913Z,28.33
2019-03-23T15:57:27.568Z,29.80
2019-03-23T15:59:55.008Z,30.60
2019-03-23T16:02:22.659Z,30.33
2019-03-23T16:04:49.950Z,27.30
2019-03-23T16:07:17.419Z,29.20
2019-03-23T16:09:44.705Z,28.20
2019-03-23T16:12:12.215Z,28.73
2019-03-23T16:14:39.718Z,28.40
2019-03-23T16:17:07.137Z,26.97
2019-03-23T16:19:34.412Z,29.73
2019-03-23T16:22:01.809Z,27.97
2019-03-23T16:24:29.216Z,28.87
2019-03-23T16:26:56.475Z,28.37
2019-03-23T16:29:23.796Z,27.00
2019-03-23T16:31:51.452Z,27.67
2019-03-23T16:34:18.711Z,27.03
2019-03-23T16:36:46.261Z,30.33
2019-03-23T16:39:13.814Z,27.50
2019-03-23T16:41:41.073Z,25.43
2019-03-23T16:44:08.532Z,26.30
2019-03-23T16:46:36.069Z,27.03
2019-03-23T16:49:03.332Z,25.63
2019-03-23T16:51:30.657Z,27.00
2019-03-23T16:53:58.075Z,27.90
2019-03-23T16:56:25.303Z,27.60
2019-03-23T16:58:52.750Z,25.47
2019-03-23T17:01:20.210Z,27.27
2019-03-23T17:03:47.555Z,25.57
2019-03-23T17:06:15.145Z,28.37
2019-03-23T17:08:42.412Z,27.43
2019-03-23T17:11:10.138Z,27.63
2019-03-23T17:13:37.594Z,27.77
2019-03-23T17:16:04.946Z,26.73
2019-03-23T17:18:32.292Z,28.63
2019-03-23T17:20:59.967Z,26.43
2019-03-23T17:23:27.276Z,27.60
2019-03-23T17:25:54.540Z,25.53
2019-03-23T17:28:21.851Z,25.57
2019-03-23T17:30:49.153Z,25.77
2019-03-23T17:33:16.400Z,24.53
2019-03-23T17:35:44.124Z,25.00
2019-03-23T17:38:11.928Z,24.37
2019-03-23T17:40:39.456Z,23.10
2019-03-23T17:43:06.769Z,24.07
2019-03-23T17:45:34.077Z,22.93
2019-03-23T17:48:01.323Z,24.80
2019-03-23T17:50:28.626Z,21.60
2019-03-23T17:52:55.882Z,22.73
2019-03-23T17:55:23.134Z,20.17
2019-03-23T17:57:50.456Z,20.13
2019-03-23T18:00:17.730Z,19.80
2019-03-23T18:02:45.269Z,20.97
2019-03-23T18:05:12.580Z,19.17
2019-03-23T18:07:39.836Z,19.97
2019-03-23T18:10:48.001Z,19.73
2019-03-23T18:13:16.866Z,19.83
2019-03-23T18:15:44.698Z,19.73
2019-03-23T18:18:12.414Z,18.10
2019-03-23T18:20:39.673Z,18.03
2019-03-23T18:23:06.962Z,18.10
2019-03-23T18:25:34.614Z,18.83
2019-03-23T18:28:01.869Z,18.83
2019-03-23T18:30:48.437Z,19.67
2019-03-23T18:33:15.700Z,18.27
2019-03-23T18:35:43.466Z,18.13
2019-03-23T18:38:10.876Z,17.77
2019-03-23T18:40:38.475Z,19.33
2019-03-23T18:43:06.424Z,19.50
2019-03-23T18:45:34.208Z,19.37
2019-03-23T18:48:01.573Z,18.50
2019-03-23T18:50:29.153Z,17.53
2019-03-23T18:52:56.462Z,18.40
2019-03-23T18:55:24.113Z,20.20
2019-03-23T18:57:51.503Z,18.30
2019-03-23T19:00:44.699Z,17.53
2019-03-23T19:03:12.366Z,17.83
2019-03-23T19:05:39.627Z,18.10
2019-03-23T19:08:06.947Z,17.80
2019-03-23T19:10:34.272Z,19.33
2019-03-23T19:13:01.904Z,20.33
2019-03-23T19:15:29.218Z,21.43
2019-03-23T19:17:56.479Z,21.30
2019-03-23T19:20:23.727Z,23.10
2019-03-23T19:22:51.043Z,22.63
2019-03-23T19:25:18.678Z,24.00
2019-03-23T19:27:49.246Z,22.70
2019-03-23T19:33:12.286Z,25.40
2019-03-23T19:35:39.536Z,24.87
2019-03-23T19:38:07.106Z,24.23
2019-03-23T19:40:34.783Z,25.43
2019-03-23T19:43:02.135Z,26.07
2019-03-23T19:45:29.685Z,25.47
2019-03-23T19:47:57.111Z,26.13
2019-03-23T19:50:24.370Z,26.53
2019-03-23T19:52:51.947Z,27.50
2019-03-23T19:55:19.532Z,27.07
2019-03-23T19:57:46.790Z,27.97
2019-03-23T20:00:14.832Z,28.93
2019-03-23T20:02:42.447Z,28.17
2019-03-23T20:05:10.243Z,28.37
2019-03-23T20:07:37.654Z,28.70
2019-03-23T20:10:05.597Z,30.57
2019-03-23T20:12:33.137Z,30.73
2019-03-23T20:15:00.454Z,29.27
2019-03-23T20:17:27.822Z,31.90
2019-03-23T20:19:55.182Z,32.03
2019-03-23T20:22:22.710Z,32.43
2019-03-23T20:24:50.253Z,33.07
2019-03-23T20:27:17.788Z,34.87
2019-03-23T20:29:56.851Z,35.50
2019-03-23T20:32:24.214Z,35.57
2019-03-23T20:34:51.524Z,37.43
2019-03-23T20:37:19.120Z,37.10
2019-03-23T20:39:46.476Z,37.20
2019-03-23T20:42:13.886Z,36.97
2019-03-23T20:44:41.204Z,38.07
2019-03-23T20:47:08.932Z,35.63
2019-03-23T20:49:36.190Z,36.53
2019-03-23T20:52:03.510Z,36.73
2019-03-23T20:54:31.259Z,35.80
2019-03-23T20:56:58.510Z,35.37
2019-03-23T20:59:26.459Z,36.37
2019-03-23T21:01:54.043Z,34.53
2019-03-23T21:04:21.579Z,34.93
2019-03-23T21:06:48.891Z,34.90
2019-03-23T21:09:16.147Z,34.57
2019-03-23T21:11:43.406Z,34.97
2019-03-23T21:14:19.889Z,34.43
2019-03-23T21:16:39.868Z,34.10
2019-03-23T21:19:07.440Z,33.43
2019-03-23T21:21:34.946Z,32.23
2019-03-23T21:24:02.577Z,31.53
2019-03-23T21:26:29.843Z,31.30
2019-03-23T21:28:57.254Z,31.13
2019-03-23T21:31:24.573Z,31.50
2019-03-23T21:33:51.960Z,31.97
2019-03-23T21:36:19.280Z,30.97
2019-03-23T21:38:46.626Z,31.33
2019-03-23T21:41:14.228Z,31.37
2019-03-23T21:43:41.534Z,30.87
2019-03-23T21:46:08.792Z,29.10
2019-03-23T21:48:36.316Z,30.50
2019-03-23T21:51:03.753Z,27.77
2019-03-23T21:53:31.055Z,26.43
2019-03-23T21:55:58.690Z,23.83
2019-03-23T21:58:26.563Z,22.87
2019-03-23T22:00:53.817Z,20.67
2019-03-23T22:03:21.350Z,22.00
2019-03-23T22:05:48.667Z,21.63
2019-03-23T22:08:15.924Z,21.57
2019-03-23T22:10:43.181Z,22.37
2019-03-23T22:13:10.512Z,22.70
2019-03-23T22:15:38.455Z,26.70
2019-03-23T22:18:05.822Z,27.43
2019-03-23T22:20:33.271Z,28.00
2019-03-23T22:23:00.889Z,28.23
2019-03-23T22:25:47.557Z,27.83
2019-03-23T22:28:15.200Z,26.00
2019-03-23T22:30:43.007Z,28.20
2019-03-23T22:33:10.532Z,28.07
2019-03-23T22:35:38.069Z,26.17
2019-03-23T22:38:05.336Z,26.60
2019-03-23T22:40:32.912Z,26.47
2019-03-23T22:43:00.399Z,27.87
2019-03-23T22:45:27.962Z,28.33
2019-03-23T22:47:55.621Z,27.13
2019-03-23T22:50:23.164Z,28.87
2019-03-23T22:52:50.427Z,27.67
2019-03-23T22:55:17.731Z,27.43
2019-03-23T22:57:45.094Z,28.10
2019-03-23T23:00:53.476Z,30.90
2019-03-23T23:03:20.834Z,30.20
2019-03-23T23:05:48.240Z,30.83
2019-03-23T23:08:15.861Z,29.00
2019-03-23T23:10:43.730Z,29.50
2019-03-23T23:13:10.997Z,29.97
2019-03-23T23:15:38.443Z,30.07
2019-03-23T23:18:05.830Z,30.83
2019-03-23T23:20:33.377Z,32.33
2019-03-23T23:23:00.791Z,31.87
2019-03-23T23:25:28.047Z,31.93
2019-03-23T23:27:55.306Z,30.70
2019-03-23T23:30:22.672Z,31.50
2019-03-23T23:32:50.739Z,33.97
2019-03-23T23:35:18.048Z,33.67
2019-03-23T23:37:45.470Z,34.57
2019-03-23T23:40:12.742Z,33.27
2019-03-23T23:42:40.022Z,32.63
2019-03-23T23:45:48.235Z,33.30
2019-03-23T23:48:15.500Z,31.67
2019-03-23T23:50:43.003Z,34.83
2019-03-23T23:53:10.331Z,34.53
2019-03-23T23:55:37.691Z,36.33
2019-03-23T23:58:05.113Z,34.93
